createdAt,value
2018-12-25T00:01:09.815Z,0.20
2018-12-25T00:04:27.117Z,0.20
2018-12-25T00:07:43.924Z,0.20
2018-12-25T00:11:00.352Z,0.20
2018-12-25T00:14:17.010Z,0.20
2018-12-25T00:17:33.712Z,0.20
2018-12-25T00:20:50.638Z,0.20
2018-12-25T00:24:07.139Z,0.20
2018-12-25T00:27:23.687Z,0.20
2018-12-25T00:30:40.111Z,0.20
2018-12-25T00:33:56.886Z,0.20
2018-12-25T00:37:13.883Z,0.20
2018-12-25T00:40:30.736Z,0.20
2018-12-25T00:43:47.227Z,0.20
2018-12-25T00:47:03.823Z,0.20
2018-12-25T00:50:20.427Z,0.20
2018-12-25T00:53:35.719Z,0.20
2018-12-25T00:56:59.886Z,0.20
2018-12-25T01:00:16.647Z,0.33
2018-12-25T01:03:33.759Z,0.20
2018-12-25T01:06:51.007Z,0.20
2018-12-25T01:10:08.056Z,0.20
2018-12-25T01:13:24.683Z,0.20
2018-12-25T01:16:41.821Z,0.20
2018-12-25T01:19:58.744Z,0.20
2018-12-25T01:23:15.431Z,0.20
2018-12-25T01:26:32.008Z,0.20
2018-12-25T01:29:48.601Z,0.30
2018-12-25T01:33:05.956Z,0.20
2018-12-25T01:36:22.451Z,0.20
2018-12-25T01:39:39.696Z,0.20
2018-12-25T01:42:56.290Z,0.20
2018-12-25T01:46:13.271Z,0.20
2018-12-25T01:49:31.852Z,0.20
2018-12-25T01:52:48.819Z,0.20
2018-12-25T01:56:06.127Z,0.20
2018-12-25T01:59:23.147Z,0.20
2018-12-25T02:02:39.644Z,0.20
2018-12-25T02:05:56.343Z,0.20
2018-12-25T02:09:13.104Z,0.20
2018-12-25T02:12:29.840Z,0.20
2018-12-25T02:15:45.087Z,0.20
2018-12-25T02:19:09.348Z,1.07
2018-12-25T02:22:25.839Z,0.20
2018-12-25T02:25:42.799Z,0.20
2018-12-25T02:28:59.475Z,0.20
2018-12-25T02:32:16.200Z,0.20
2018-12-25T02:35:32.843Z,0.20
2018-12-25T02:38:49.374Z,0.20
2018-12-25T02:42:06.667Z,0.20
2018-12-25T02:45:23.339Z,0.20
2018-12-25T02:48:39.823Z,0.20
2018-12-25T02:51:56.893Z,0.20
2018-12-25T02:55:13.603Z,0.40
2018-12-25T02:58:30.163Z,0.20
2018-12-25T03:01:47.166Z,0.20
2018-12-25T03:05:02.445Z,0.20
2018-12-25T03:08:26.657Z,0.20
2018-12-25T03:11:43.831Z,0.20
2018-12-25T03:15:01.401Z,0.20
2018-12-25T03:18:18.492Z,0.20
2018-12-25T03:21:35.176Z,0.20
2018-12-25T03:24:52.072Z,0.20
2018-12-25T03:28:08.661Z,0.20
2018-12-25T03:31:23.895Z,0.20
2018-12-25T03:34:40.541Z,0.20
2018-12-25T03:37:57.628Z,0.20
2018-12-25T03:41:14.531Z,0.20
2018-12-25T03:44:31.120Z,0.20
2018-12-25T03:47:47.771Z,0.20
2018-12-25T03:51:05.044Z,0.20
2018-12-25T03:54:21.843Z,0.20
2018-12-25T03:57:38.804Z,0.20
2018-12-25T04:00:55.323Z,0.20
2018-12-25T04:04:12.219Z,0.20
2018-12-25T04:07:28.795Z,0.20
2018-12-25T04:10:45.511Z,0.20
2018-12-25T04:14:02.408Z,0.20
2018-12-25T04:17:19.684Z,0.20
2018-12-25T04:20:36.555Z,0.20
2018-12-25T04:23:53.582Z,0.20
2018-12-25T04:27:10.824Z,0.20
2018-12-25T04:30:27.812Z,0.20
2018-12-25T04:33:44.482Z,0.20
2018-12-25T04:37:01.787Z,0.20
2018-12-25T04:40:18.480Z,0.20
2018-12-25T04:43:35.404Z,0.20
2018-12-25T04:46:51.958Z,0.20
2018-12-25T04:50:08.515Z,0.20
2018-12-25T04:53:25.211Z,0.20
2018-12-25T04:56:42.031Z,0.20
2018-12-25T04:59:58.889Z,0.20
2018-12-25T05:03:15.440Z,0.20
2018-12-25T05:06:31.927Z,0.20
2018-12-25T05:09:48.956Z,0.20
2018-12-25T05:13:05.431Z,0.20
2018-12-25T05:16:22.411Z,0.20
2018-12-25T05:19:38.940Z,0.20
2018-12-25T05:22:56.339Z,0.20
2018-12-25T05:26:13.588Z,0.20
2018-12-25T05:29:29.983Z,0.20
2018-12-25T05:32:34.941Z,0.20
2018-12-25T05:35:39.903Z,0.20
2018-12-25T05:42:12.295Z,0.20
2018-12-25T05:45:29.595Z,0.20
2018-12-25T05:48:46.391Z,0.20
2018-12-25T05:52:03.131Z,0.20
2018-12-25T05:55:19.851Z,0.20
2018-12-25T05:58:36.551Z,0.20
2018-12-25T06:01:53.420Z,0.20
2018-12-25T06:05:10.457Z,0.20
2018-12-25T06:08:26.887Z,0.20
2018-12-25T06:11:42.163Z,0.30
2018-12-25T06:15:06.382Z,0.20
2018-12-25T06:18:23.619Z,0.20
2018-12-25T06:21:40.294Z,0.20
2018-12-25T06:24:56.771Z,0.20
2018-12-25T06:28:13.437Z,0.20
2018-12-25T06:31:29.990Z,0.20
2018-12-25T06:34:46.648Z,0.20
2018-12-25T06:38:03.495Z,0.20
2018-12-25T06:41:20.318Z,0.20
2018-12-25T06:44:37.207Z,0.20
2018-12-25T06:47:54.239Z,0.20
2018-12-25T06:51:11.348Z,0.20
2018-12-25T06:54:28.411Z,0.20
2018-12-25T06:57:47.026Z,0.20
2018-12-25T07:01:04.327Z,0.20
2018-12-25T07:04:19.638Z,0.20
2018-12-25T07:07:43.786Z,0.20
2018-12-25T07:11:01.143Z,0.20
2018-12-25T07:14:17.826Z,0.20
2018-12-25T07:17:34.696Z,0.20
2018-12-25T07:20:51.260Z,0.20
2018-12-25T07:24:07.966Z,0.20
2018-12-25T07:27:24.532Z,0.20
2018-12-25T07:30:41.534Z,0.20
2018-12-25T07:33:58.808Z,0.20
2018-12-25T07:37:15.507Z,0.20
2018-12-25T07:40:32.779Z,0.20
2018-12-25T07:43:49.319Z,0.20
2018-12-25T07:47:05.885Z,0.20
2018-12-25T07:50:22.884Z,0.20
2018-12-25T07:53:40.120Z,0.20
2018-12-25T07:56:57.264Z,0.20
2018-12-25T08:00:14.644Z,0.20
2018-12-25T08:03:31.105Z,8.73
2018-12-25T08:06:48.409Z,8.73
2018-12-25T08:10:05.233Z,10.17
2018-12-25T08:13:22.059Z,9.60
2018-12-25T08:16:38.771Z,7.70
2018-12-25T08:19:55.650Z,7.77
2018-12-25T08:23:12.394Z,8.00
2018-12-25T08:26:29.011Z,8.03
2018-12-25T08:29:46.070Z,5.93
2018-12-25T08:33:02.689Z,5.20
2018-12-25T08:36:17.879Z,6.43
2018-12-25T08:39:42.111Z,6.00
2018-12-25T08:42:59.010Z,7.00
2018-12-25T08:46:15.763Z,6.00
2018-12-25T08:49:32.607Z,5.67
2018-12-25T08:52:49.711Z,7.10
2018-12-25T08:56:06.776Z,5.90
2018-12-25T08:59:23.891Z,6.40
2018-12-25T09:02:41.280Z,5.93
2018-12-25T09:05:58.243Z,5.00
2018-12-25T09:09:13.541Z,6.20
2018-12-25T09:12:37.793Z,5.37
2018-12-25T09:15:54.512Z,20.73
2018-12-25T09:19:11.471Z,7.20
2018-12-25T09:22:27.959Z,5.00
2018-12-25T09:25:44.503Z,5.00
2018-12-25T09:29:01.675Z,5.37
2018-12-25T09:32:18.559Z,5.67
2018-12-25T09:35:35.043Z,5.17
2018-12-25T09:38:51.780Z,6.20
2018-12-25T09:42:08.321Z,7.30
2018-12-25T09:45:24.953Z,5.37
2018-12-25T09:48:41.645Z,5.43
2018-12-25T09:51:58.339Z,6.40
2018-12-25T09:55:14.867Z,5.27
2018-12-25T09:58:31.643Z,4.70
2018-12-25T10:01:48.414Z,5.00
2018-12-25T10:05:05.191Z,5.13
2018-12-25T10:08:21.758Z,5.00
2018-12-25T10:11:44.275Z,5.20
2018-12-25T10:14:56.687Z,6.50
2018-12-25T10:18:13.340Z,5.30
2018-12-25T10:21:29.908Z,4.47
2018-12-25T10:24:46.918Z,4.33
2018-12-25T10:28:03.619Z,5.20
2018-12-25T10:31:20.531Z,4.50
2018-12-25T10:34:37.127Z,3.90
2018-12-25T10:37:53.783Z,5.30
2018-12-25T10:41:10.219Z,4.97
2018-12-25T10:44:26.989Z,5.10
2018-12-25T10:47:43.508Z,5.33
2018-12-25T10:51:00.748Z,5.70
2018-12-25T10:54:17.391Z,7.27
2018-12-25T10:57:34.387Z,5.03
2018-12-25T11:00:51.080Z,5.20
2018-12-25T11:04:07.511Z,7.70
2018-12-25T11:07:24.000Z,5.80
2018-12-25T11:10:40.815Z,4.10
2018-12-25T11:13:57.290Z,4.77
2018-12-25T11:17:14.103Z,4.73
2018-12-25T11:20:30.850Z,4.80
2018-12-25T11:23:47.631Z,4.90
2018-12-25T11:27:04.023Z,5.73
2018-12-25T11:30:20.722Z,5.20
2018-12-25T11:33:37.440Z,4.27
2018-12-25T11:36:54.221Z,4.40
2018-12-25T11:40:11.024Z,4.40
2018-12-25T11:43:27.999Z,4.10
2018-12-25T11:46:45.019Z,7.73
2018-12-25T11:50:02.268Z,17.90
2018-12-25T11:53:18.729Z,8.60
2018-12-25T11:56:35.487Z,5.50
2018-12-25T11:59:52.552Z,4.63
2018-12-25T12:03:09.119Z,4.40
2018-12-25T12:06:25.643Z,4.50
2018-12-25T12:09:42.460Z,4.73
2018-12-25T12:12:59.120Z,4.50
2018-12-25T12:16:15.655Z,5.20
2018-12-25T12:19:32.778Z,4.53
2018-12-25T12:22:49.759Z,9.60
2018-12-25T12:26:06.283Z,6.87
2018-12-25T12:29:22.952Z,29.50
2018-12-25T12:32:39.591Z,17.93
2018-12-25T12:35:56.340Z,8.00
2018-12-25T12:39:12.840Z,7.97
2018-12-25T12:42:29.566Z,11.60
2018-12-25T12:45:46.104Z,5.03
2018-12-25T12:49:02.871Z,6.70
2018-12-25T12:52:19.586Z,14.17
2018-12-25T12:55:36.367Z,5.67
2018-12-25T12:58:53.489Z,5.60
2018-12-25T13:02:10.601Z,8.80
2018-12-25T13:05:25.791Z,4.67
2018-12-25T13:08:50.031Z,5.53
2018-12-25T13:12:26.738Z,6.37
2018-12-25T13:15:43.257Z,6.60
2018-12-25T13:18:59.848Z,6.50
2018-12-25T13:22:16.794Z,7.30
2018-12-25T13:25:33.186Z,8.03
2018-12-25T13:28:50.003Z,9.00
2018-12-25T13:32:06.924Z,14.57
2018-12-25T13:35:23.768Z,10.90
2018-12-25T13:38:40.603Z,12.47
2018-12-25T13:41:57.374Z,9.43
2018-12-25T13:45:14.887Z,9.50
2018-12-25T13:48:31.736Z,6.90
2018-12-25T13:51:48.518Z,7.20
2018-12-25T13:55:05.463Z,7.60
2018-12-25T13:58:22.604Z,6.67
2018-12-25T14:01:39.207Z,10.37
2018-12-25T14:04:54.468Z,7.77
2018-12-25T14:08:18.621Z,6.63
2018-12-25T14:11:35.102Z,12.47
2018-12-25T14:14:52.340Z,7.30
2018-12-25T14:18:07.591Z,10.20
2018-12-25T14:21:31.733Z,9.73
2018-12-25T14:24:46.983Z,8.20
2018-12-25T14:28:11.216Z,9.67
2018-12-25T14:31:28.200Z,7.27
2018-12-25T14:34:44.982Z,8.23
2018-12-25T14:38:01.685Z,7.40
2018-12-25T14:41:18.535Z,9.17
2018-12-25T14:44:35.036Z,8.07
2018-12-25T14:47:51.837Z,6.97
2018-12-25T14:51:08.410Z,7.27
2018-12-25T14:54:25.254Z,8.37
2018-12-25T14:57:42.195Z,9.90
2018-12-25T15:00:58.992Z,8.97
2018-12-25T15:04:15.546Z,9.73
2018-12-25T15:07:32.239Z,8.33
2018-12-25T15:10:48.704Z,8.40
2018-12-25T15:14:05.751Z,10.27
2018-12-25T15:17:22.482Z,12.13
2018-12-25T15:20:39.490Z,11.17
2018-12-25T15:23:56.628Z,11.00
2018-12-25T15:27:13.176Z,13.07
2018-12-25T15:30:29.666Z,12.50
2018-12-25T15:33:46.455Z,11.90
2018-12-25T15:37:03.048Z,10.73
2018-12-25T15:40:19.919Z,7.80
2018-12-25T15:43:37.261Z,10.20
2018-12-25T15:46:54.428Z,7.50
2018-12-25T15:50:11.334Z,8.60
2018-12-25T15:53:36.627Z,9.50
2018-12-25T15:56:45.268Z,9.37
2018-12-25T16:00:12.439Z,8.87
2018-12-25T16:03:28.896Z,9.60
2018-12-25T16:06:45.802Z,10.70
2018-12-25T16:10:02.515Z,8.17
2018-12-25T16:13:19.349Z,11.73
2018-12-25T16:16:35.855Z,8.57
2018-12-25T16:19:52.716Z,9.33
2018-12-25T16:23:07.907Z,9.47
2018-12-25T16:26:32.157Z,9.83
2018-12-25T16:29:48.999Z,10.10
2018-12-25T16:33:05.804Z,7.70
2018-12-25T16:36:22.563Z,12.23
2018-12-25T16:39:39.276Z,13.20
2018-12-25T16:42:55.991Z,11.97
2018-12-25T16:46:13.255Z,9.27
2018-12-25T16:49:29.891Z,10.90
2018-12-25T16:52:46.435Z,10.43
2018-12-25T16:56:03.170Z,12.33
2018-12-25T16:59:19.963Z,13.87
2018-12-25T17:02:37.253Z,13.70
2018-12-25T17:05:54.451Z,11.33
2018-12-25T17:09:11.532Z,15.13
2018-12-25T17:12:28.272Z,11.50
2018-12-25T17:15:44.827Z,10.90
2018-12-25T17:19:01.963Z,10.77
2018-12-25T17:22:18.783Z,11.77
2018-12-25T17:25:35.451Z,12.30
2018-12-25T17:28:52.700Z,11.47
2018-12-25T17:32:09.791Z,11.27
2018-12-25T17:35:26.370Z,10.50
2018-12-25T17:38:43.112Z,10.30
2018-12-25T17:42:00.435Z,12.03
2018-12-25T17:45:17.015Z,11.40
2018-12-25T17:48:33.903Z,11.17
2018-12-25T17:51:51.032Z,11.67
2018-12-25T17:55:07.572Z,10.87
2018-12-25T17:58:24.415Z,10.53
2018-12-25T18:01:41.331Z,11.60
2018-12-25T18:04:57.983Z,12.17
2018-12-25T18:08:14.480Z,11.50
2018-12-25T18:11:31.038Z,11.17
2018-12-25T18:14:47.859Z,10.50
2018-12-25T18:18:04.615Z,10.60
2018-12-25T18:21:21.999Z,11.07
2018-12-25T18:24:38.842Z,12.33
2018-12-25T18:27:55.279Z,12.77
2018-12-25T18:31:11.876Z,12.07
2018-12-25T18:34:28.391Z,12.73
2018-12-25T18:37:45.021Z,12.50
2018-12-25T18:41:01.415Z,10.83
2018-12-25T18:44:18.232Z,12.83
2018-12-25T18:47:23.202Z,12.40
2018-12-25T18:50:28.235Z,13.77
2018-12-25T18:53:33.334Z,11.83
2018-12-25T18:56:38.352Z,13.93
2018-12-25T18:59:43.406Z,13.10
2018-12-25T19:02:48.436Z,12.67
2018-12-25T19:05:53.389Z,12.33
2018-12-25T19:08:58.526Z,14.00
2018-12-25T19:12:03.655Z,13.43
2018-12-25T19:15:28.211Z,13.27
2018-12-25T19:18:33.176Z,12.13
2018-12-25T19:21:38.110Z,12.23
2018-12-25T19:24:43.152Z,13.80
2018-12-25T19:27:48.129Z,12.33
2018-12-25T19:30:53.175Z,11.20
2018-12-25T19:33:58.222Z,12.17
2018-12-25T19:37:03.316Z,11.80
2018-12-25T19:40:08.680Z,13.27
2018-12-25T19:43:13.721Z,14.27
2018-12-25T19:46:18.742Z,14.70
2018-12-25T19:49:23.927Z,13.47
2018-12-25T19:52:29.039Z,14.00
2018-12-25T19:55:34.142Z,11.57
2018-12-25T19:58:39.246Z,13.70
2018-12-25T20:01:44.347Z,13.07
2018-12-25T20:05:18.795Z,13.20
2018-12-25T20:08:55.062Z,13.63
2018-12-25T20:12:23.384Z,14.63
2018-12-25T20:16:20.002Z,12.23
2018-12-25T20:20:24.292Z,13.20
2018-12-25T20:24:02.199Z,13.20
2018-12-25T20:27:41.323Z,13.57
2018-12-25T20:31:22.126Z,13.17
2018-12-25T20:34:49.050Z,16.10
2018-12-25T20:38:30.792Z,16.07
2018-12-25T20:42:15.716Z,15.37
2018-12-25T20:46:19.739Z,16.77
2018-12-25T20:49:58.267Z,16.90
2018-12-25T20:53:57.619Z,13.60
2018-12-25T20:57:25.236Z,14.57
2018-12-25T21:01:05.211Z,14.53
2018-12-25T21:04:50.963Z,17.63
2018-12-25T21:09:04.795Z,16.43
2018-12-25T21:12:51.461Z,18.40
2018-12-25T21:16:23.028Z,15.60
2018-12-25T21:19:59.095Z,13.97
2018-12-25T21:23:39.559Z,17.13
2018-12-25T21:27:20.212Z,14.90
2018-12-25T21:30:26.027Z,15.90
2018-12-25T21:33:31.141Z,14.70
2018-12-25T21:36:36.261Z,13.83
2018-12-25T21:39:41.379Z,14.10
2018-12-25T21:42:47.469Z,13.97
2018-12-25T21:45:52.883Z,14.47
2018-12-25T21:48:58.010Z,13.63
2018-12-25T21:52:03.232Z,15.70
2018-12-25T21:55:09.439Z,17.90
2018-12-25T21:58:14.644Z,15.40
2018-12-25T22:01:19.684Z,14.63
2018-12-25T22:04:24.787Z,12.43
2018-12-25T22:07:29.807Z,12.57
2018-12-25T22:10:34.776Z,13.30
2018-12-25T22:13:39.721Z,12.27
2018-12-25T22:16:44.676Z,12.83
2018-12-25T22:19:49.742Z,13.40
2018-12-25T22:22:54.684Z,12.73
2018-12-25T22:25:59.759Z,12.90
2018-12-25T22:29:04.911Z,12.47
2018-12-25T22:32:09.951Z,12.77
2018-12-25T22:35:15.008Z,13.83
2018-12-25T22:38:20.092Z,12.50
2018-12-25T22:41:25.138Z,13.20
2018-12-25T22:44:30.089Z,11.60
2018-12-25T22:47:35.122Z,11.80
2018-12-25T22:50:40.160Z,11.47
2018-12-25T22:53:45.171Z,12.23
2018-12-25T22:56:50.283Z,13.77
2018-12-25T22:59:55.380Z,12.83
2018-12-25T23:03:00.410Z,12.90
2018-12-25T23:06:05.445Z,12.10
2018-12-25T23:09:10.712Z,12.13
2018-12-25T23:12:15.696Z,13.60
2018-12-25T23:15:20.796Z,14.23
2018-12-25T23:18:25.836Z,12.73
2018-12-25T23:21:30.786Z,13.17
2018-12-25T23:24:35.750Z,12.73
2018-12-25T23:27:40.722Z,12.60
2018-12-25T23:30:45.744Z,13.10
2018-12-25T23:33:50.736Z,12.07
2018-12-25T23:36:55.882Z,12.60
2018-12-25T23:40:00.905Z,12.53
2018-12-25T23:43:06.017Z,13.40
2018-12-25T23:46:11.047Z,11.50
2018-12-25T23:49:16.076Z,12.13
2018-12-25T23:52:21.118Z,12.60
2018-12-25T23:55:26.089Z,12.10
2018-12-25T23:58:31.131Z,12.37
